sensor_id;sensor_type;location;lat;lon;timestamp;P1;durP1;ratioP1;P2;durP2;ratioP2
12267;SDS011;6196;48.398;11.736;2023-03-01T00:01:04;18.57;;;13.80;;
12267;SDS011;6196;48.398;11.736;2023-03-01T00:03:34;19.83;;;13.80;;
12267;SDS011;6196;48.398;11.736;2023-03-01T00:06:01;17.63;;;14.27;;
12267;SDS011;6196;48.398;11.736;2023-03-01T00:08:29;17.40;;;13.20;;
12267;SDS011;6196;48.398;11.736;2023-03-01T00:11:15;18.00;;;13.47;;
12267;SDS011;6196;48.398;11.736;2023-03-01T00:13:46;22.27;;;15.30;;
12267;SDS011;6196;48.398;11.736;2023-03-01T00:16:16;19.40;;;14.30;;
12267;SDS011;6196;48.398;11.736;2023-03-01T00:18:48;18.40;;;13.80;;
12267;SDS011;6196;48.398;11.736;2023-03-01T00:21:15;19.37;;;14.23;;
12267;SDS011;6196;48.398;11.736;2023-03-01T00:23:44;18.80;;;13.57;;
12267;SDS011;6196;48.398;11.736;2023-03-01T00:26:12;19.03;;;13.87;;
12267;SDS011;6196;48.398;11.736;2023-03-01T00:28:40;18.37;;;14.73;;
12267;SDS011;6196;48.398;11.736;2023-03-01T00:31:14;17.43;;;13.93;;
12267;SDS011;6196;48.398;11.736;2023-03-01T00:33:45;18.93;;;14.57;;
12267;SDS011;6196;48.398;11.736;2023-03-01T00:36:13;18.10;;;14.40;;
12267;SDS011;6196;48.398;11.736;2023-03-01T00:38:42;18.90;;;13.43;;
12267;SDS011;6196;48.398;11.736;2023-03-01T00:41:14;18.33;;;13.17;;
12267;SDS011;6196;48.398;11.736;2023-03-01T00:43:44;19.70;;;14.33;;
12267;SDS011;6196;48.398;11.736;2023-03-01T00:46:12;18.30;;;13.97;;
12267;SDS011;6196;48.398;11.736;2023-03-01T00:48:44;17.70;;;14.00;;
12267;SDS011;6196;48.398;11.736;2023-03-01T00:51:15;18.03;;;14.03;;
12267;SDS011;6196;48.398;11.736;2023-03-01T00:53:43;18.70;;;14.27;;
12267;SDS011;6196;48.398;11.736;2023-03-01T00:56:12;18.40;;;13.80;;
12267;SDS011;6196;48.398;11.736;2023-03-01T00:58:40;17.73;;;13.57;;
12267;SDS011;6196;48.398;11.736;2023-03-01T01:01:12;18.20;;;14.30;;
12267;SDS011;6196;48.398;11.736;2023-03-01T01:03:48;18.77;;;13.97;;
12267;SDS011;6196;48.398;11.736;2023-03-01T01:06:22;18.83;;;14.77;;
12267;SDS011;6196;48.398;11.736;2023-03-01T01:08:53;17.07;;;13.30;;
12267;SDS011;6196;48.398;11.736;2023-03-01T01:11:21;20.47;;;14.50;;
12267;SDS011;6196;48.398;11.736;2023-03-01T01:13:50;18.50;;;14.60;;
12267;SDS011;6196;48.398;11.736;2023-03-01T01:16:18;19.73;;;14.63;;
12267;SDS011;6196;48.398;11.736;2023-03-01T01:18:46;20.90;;;15.20;;
12267;SDS011;6196;48.398;11.736;2023-03-01T01:21:14;19.60;;;14.47;;
12267;SDS011;6196;48.398;11.736;2023-03-01T01:23:44;19.13;;;15.10;;
12267;SDS011;6196;48.398;11.736;2023-03-01T01:26:13;17.07;;;14.00;;
12267;SDS011;6196;48.398;11.736;2023-03-01T01:28:44;17.97;;;14.23;;
12267;SDS011;6196;48.398;11.736;2023-03-01T01:31:13;18.30;;;14.27;;
12267;SDS011;6196;48.398;11.736;2023-03-01T01:33:41;19.03;;;14.40;;
12267;SDS011;6196;48.398;11.736;2023-03-01T01:36:08;18.93;;;14.23;;
12267;SDS011;6196;48.398;11.736;2023-03-01T01:38:36;18.40;;;14.13;;
12267;SDS011;6196;48.398;11.736;2023-03-01T01:41:04;19.57;;;15.67;;
12267;SDS011;6196;48.398;11.736;2023-03-01T01:43:34;16.93;;;14.40;;
12267;SDS011;6196;48.398;11.736;2023-03-01T01:48:48;19.63;;;13.53;;
12267;SDS011;6196;48.398;11.736;2023-03-01T01:51:22;19.47;;;14.13;;
12267;SDS011;6196;48.398;11.736;2023-03-01T01:53:55;16.83;;;14.10;;
12267;SDS011;6196;48.398;11.736;2023-03-01T01:56:26;18.70;;;14.17;;
12267;SDS011;6196;48.398;11.736;2023-03-01T01:58:55;19.80;;;14.27;;
12267;SDS011;6196;48.398;11.736;2023-03-01T02:01:23;17.83;;;13.83;;
12267;SDS011;6196;48.398;11.736;2023-03-01T02:03:51;16.50;;;13.63;;
12267;SDS011;6196;48.398;11.736;2023-03-01T02:06:22;19.80;;;14.90;;
12267;SDS011;6196;48.398;11.736;2023-03-01T02:09:07;19.43;;;14.00;;
12267;SDS011;6196;48.398;11.736;2023-03-01T02:11:40;20.53;;;15.53;;
12267;SDS011;6196;48.398;11.736;2023-03-01T02:14:09;18.57;;;14.20;;
12267;SDS011;6196;48.398;11.736;2023-03-01T02:16:36;19.57;;;14.27;;
12267;SDS011;6196;48.398;11.736;2023-03-01T02:19:03;18.30;;;14.20;;
12267;SDS011;6196;48.398;11.736;2023-03-01T02:27:07;19.50;;;14.67;;
12267;SDS011;6196;48.398;11.736;2023-03-01T02:29:35;18.50;;;14.10;;
12267;SDS011;6196;48.398;11.736;2023-03-01T02:32:02;19.47;;;14.03;;
12267;SDS011;6196;48.398;11.736;2023-03-01T02:34:31;18.00;;;14.33;;
12267;SDS011;6196;48.398;11.736;2023-03-01T02:37:10;20.37;;;14.43;;
12267;SDS011;6196;48.398;11.736;2023-03-01T02:39:47;17.47;;;13.47;;
12267;SDS011;6196;48.398;11.736;2023-03-01T02:42:21;17.73;;;13.77;;
12267;SDS011;6196;48.398;11.736;2023-03-01T02:44:53;16.37;;;13.90;;
12267;SDS011;6196;48.398;11.736;2023-03-01T02:47:20;17.83;;;14.90;;
12267;SDS011;6196;48.398;11.736;2023-03-01T02:49:46;18.37;;;13.93;;
12267;SDS011;6196;48.398;11.736;2023-03-01T02:52:26;19.00;;;14.53;;
12267;SDS011;6196;48.398;11.736;2023-03-01T02:55:12;19.57;;;14.67;;
12267;SDS011;6196;48.398;11.736;2023-03-01T02:57:42;21.97;;;14.67;;
12267;SDS011;6196;48.398;11.736;2023-03-01T03:00:13;20.83;;;14.37;;
12267;SDS011;6196;48.398;11.736;2023-03-01T03:02:56;18.77;;;14.47;;
12267;SDS011;6196;48.398;11.736;2023-03-01T03:05:27;18.23;;;13.77;;
12267;SDS011;6196;48.398;11.736;2023-03-01T03:07:58;18.90;;;13.87;;
12267;SDS011;6196;48.398;11.736;2023-03-01T03:10:29;19.27;;;14.40;;
12267;SDS011;6196;48.398;11.736;2023-03-01T03:13:04;20.37;;;14.97;;
12267;SDS011;6196;48.398;11.736;2023-03-01T03:15:36;18.97;;;14.80;;
12267;SDS011;6196;48.398;11.736;2023-03-01T03:18:05;20.00;;;15.60;;
12267;SDS011;6196;48.398;11.736;2023-03-01T03:20:38;18.53;;;14.27;;
12267;SDS011;6196;48.398;11.736;2023-03-01T03:23:07;18.80;;;14.80;;
12267;SDS011;6196;48.398;11.736;2023-03-01T03:25:34;19.37;;;14.33;;
12267;SDS011;6196;48.398;11.736;2023-03-01T03:28:04;18.60;;;14.23;;
12267;SDS011;6196;48.398;11.736;2023-03-01T03:30:36;17.97;;;14.30;;
12267;SDS011;6196;48.398;11.736;2023-03-01T03:33:06;18.33;;;14.33;;
12267;SDS011;6196;48.398;11.736;2023-03-01T03:36:07;18.97;;;13.90;;
12267;SDS011;6196;48.398;11.736;2023-03-01T03:38:26;22.17;;;14.90;;
12267;SDS011;6196;48.398;11.736;2023-03-01T03:41:00;20.33;;;14.83;;
12267;SDS011;6196;48.398;11.736;2023-03-01T03:43:32;22.73;;;15.67;;
12267;SDS011;6196;48.398;11.736;2023-03-01T03:46:02;20.27;;;15.30;;
12267;SDS011;6196;48.398;11.736;2023-03-01T03:48:33;20.23;;;15.57;;
12267;SDS011;6196;48.398;11.736;2023-03-01T03:51:03;19.63;;;14.63;;
12267;SDS011;6196;48.398;11.736;2023-03-01T03:53:33;19.67;;;14.53;;
12267;SDS011;6196;48.398;11.736;2023-03-01T03:56:00;21.03;;;14.83;;
12267;SDS011;6196;48.398;11.736;2023-03-01T03:58:27;19.37;;;15.50;;
12267;SDS011;6196;48.398;11.736;2023-03-01T04:00:55;20.93;;;15.23;;
12267;SDS011;6196;48.398;11.736;2023-03-01T04:03:23;19.30;;;14.20;;
12267;SDS011;6196;48.398;11.736;2023-03-01T04:05:52;21.77;;;15.47;;
12267;SDS011;6196;48.398;11.736;2023-03-01T04:08:20;21.70;;;15.20;;
12267;SDS011;6196;48.398;11.736;2023-03-01T04:10:52;18.93;;;15.07;;
12267;SDS011;6196;48.398;11.736;2023-03-01T04:13:24;22.53;;;16.00;;
12267;SDS011;6196;48.398;11.736;2023-03-01T04:15:52;21.37;;;15.77;;
12267;SDS011;6196;48.398;11.736;2023-03-01T04:18:21;23.03;;;16.10;;
12267;SDS011;6196;48.398;11.736;2023-03-01T04:20:49;21.17;;;14.77;;
12267;SDS011;6196;48.398;11.736;2023-03-01T04:23:19;21.60;;;15.70;;
12267;SDS011;6196;48.398;11.736;2023-03-01T04:31:03;22.40;;;15.27;;
12267;SDS011;6196;48.398;11.736;2023-03-01T04:33:40;21.80;;;15.17;;
12267;SDS011;6196;48.398;11.736;2023-03-01T04:36:18;20.30;;;15.23;;
12267;SDS011;6196;48.398;11.736;2023-03-01T04:38:48;21.17;;;14.87;;
12267;SDS011;6196;48.398;11.736;2023-03-01T04:41:16;22.83;;;16.10;;
12267;SDS011;6196;48.398;11.736;2023-03-01T04:43:46;19.93;;;16.20;;
12267;SDS011;6196;48.398;11.736;2023-03-01T04:46:16;23.67;;;15.80;;
12267;SDS011;6196;48.398;11.736;2023-03-01T04:48:45;22.10;;;15.23;;
12267;SDS011;6196;48.398;11.736;2023-03-01T04:51:13;22.47;;;15.77;;
12267;SDS011;6196;48.398;11.736;2023-03-01T04:53:41;21.07;;;15.57;;
12267;SDS011;6196;48.398;11.736;2023-03-01T04:56:08;22.60;;;15.67;;
12267;SDS011;6196;48.398;11.736;2023-03-01T04:58:36;24.67;;;17.03;;
12267;SDS011;6196;48.398;11.736;2023-03-01T05:01:07;22.23;;;16.03;;
12267;SDS011;6196;48.398;11.736;2023-03-01T05:03:43;22.37;;;16.67;;
12267;SDS011;6196;48.398;11.736;2023-03-01T05:06:12;23.37;;;16.10;;
12267;SDS011;6196;48.398;11.736;2023-03-01T05:08:41;23.03;;;15.97;;
12267;SDS011;6196;48.398;11.736;2023-03-01T05:11:09;26.30;;;16.90;;
12267;SDS011;6196;48.398;11.736;2023-03-01T05:13:37;21.03;;;16.57;;
12267;SDS011;6196;48.398;11.736;2023-03-01T05:16:05;20.50;;;14.33;;
12267;SDS011;6196;48.398;11.736;2023-03-01T05:18:37;23.47;;;15.67;;
12267;SDS011;6196;48.398;11.736;2023-03-01T05:21:06;22.07;;;16.00;;
12267;SDS011;6196;48.398;11.736;2023-03-01T05:23:37;22.53;;;16.83;;
12267;SDS011;6196;48.398;11.736;2023-03-01T05:26:05;21.43;;;16.17;;
12267;SDS011;6196;48.398;11.736;2023-03-01T05:28:38;20.97;;;15.33;;
12267;SDS011;6196;48.398;11.736;2023-03-01T05:31:06;22.07;;;15.97;;
12267;SDS011;6196;48.398;11.736;2023-03-01T05:33:36;23.30;;;16.30;;
12267;SDS011;6196;48.398;11.736;2023-03-01T05:36:04;21.53;;;16.00;;
12267;SDS011;6196;48.398;11.736;2023-03-01T05:38:33;24.30;;;16.80;;
12267;SDS011;6196;48.398;11.736;2023-03-01T05:41:00;21.70;;;16.17;;
12267;SDS011;6196;48.398;11.736;2023-03-01T05:43:29;24.13;;;17.00;;
12267;SDS011;6196;48.398;11.736;2023-03-01T05:46:00;24.57;;;16.70;;
12267;SDS011;6196;48.398;11.736;2023-03-01T05:48:27;23.67;;;17.27;;
12267;SDS011;6196;48.398;11.736;2023-03-01T05:50:55;24.53;;;17.30;;
12267;SDS011;6196;48.398;11.736;2023-03-01T05:53:26;23.93;;;16.60;;
12267;SDS011;6196;48.398;11.736;2023-03-01T05:55:53;24.10;;;17.03;;
12267;SDS011;6196;48.398;11.736;2023-03-01T05:58:20;23.17;;;16.23;;
12267;SDS011;6196;48.398;11.736;2023-03-01T06:00:48;22.33;;;16.27;;
12267;SDS011;6196;48.398;11.736;2023-03-01T06:03:16;26.40;;;18.23;;
12267;SDS011;6196;48.398;11.736;2023-03-01T06:05:44;22.87;;;15.23;;
12267;SDS011;6196;48.398;11.736;2023-03-01T06:08:12;23.63;;;15.70;;
12267;SDS011;6196;48.398;11.736;2023-03-01T06:10:39;24.47;;;16.00;;
12267;SDS011;6196;48.398;11.736;2023-03-01T06:13:06;24.87;;;17.07;;
12267;SDS011;6196;48.398;11.736;2023-03-01T06:15:34;25.07;;;17.27;;
12267;SDS011;6196;48.398;11.736;2023-03-01T06:18:00;25.73;;;17.37;;
12267;SDS011;6196;48.398;11.736;2023-03-01T06:20:28;23.53;;;15.17;;
12267;SDS011;6196;48.398;11.736;2023-03-01T06:22:55;25.37;;;17.63;;
12267;SDS011;6196;48.398;11.736;2023-03-01T06:25:24;21.67;;;15.40;;
12267;SDS011;6196;48.398;11.736;2023-03-01T06:27:53;23.77;;;16.53;;
12267;SDS011;6196;48.398;11.736;2023-03-01T06:30:20;20.80;;;15.23;;
12267;SDS011;6196;48.398;11.736;2023-03-01T06:32:49;26.10;;;17.20;;
12267;SDS011;6196;48.398;11.736;2023-03-01T06:35:16;24.37;;;16.77;;
12267;SDS011;6196;48.398;11.736;2023-03-01T06:37:45;25.73;;;18.30;;
12267;SDS011;6196;48.398;11.736;2023-03-01T06:40:14;24.33;;;17.20;;
12267;SDS011;6196;48.398;11.736;2023-03-01T06:42:43;25.90;;;17.00;;
12267;SDS011;6196;48.398;11.736;2023-03-01T06:45:15;23.97;;;16.53;;
12267;SDS011;6196;48.398;11.736;2023-03-01T06:47:46;25.50;;;16.33;;
12267;SDS011;6196;48.398;11.736;2023-03-01T06:50:14;25.47;;;16.00;;
12267;SDS011;6196;48.398;11.736;2023-03-01T06:52:42;23.47;;;16.90;;
12267;SDS011;6196;48.398;11.736;2023-03-01T06:55:11;22.30;;;16.33;;
12267;SDS011;6196;48.398;11.736;2023-03-01T06:57:39;21.90;;;16.30;;
12267;SDS011;6196;48.398;11.736;2023-03-01T07:00:06;22.10;;;16.33;;
12267;SDS011;6196;48.398;11.736;2023-03-01T07:02:34;23.07;;;16.13;;
12267;SDS011;6196;48.398;11.736;2023-03-01T07:05:01;23.93;;;17.00;;
12267;SDS011;6196;48.398;11.736;2023-03-01T07:07:28;20.23;;;15.20;;
12267;SDS011;6196;48.398;11.736;2023-03-01T07:09:55;23.90;;;16.33;;
12267;SDS011;6196;48.398;11.736;2023-03-01T07:12:22;22.57;;;16.37;;
12267;SDS011;6196;48.398;11.736;2023-03-01T07:14:48;22.23;;;16.87;;
12267;SDS011;6196;48.398;11.736;2023-03-01T07:17:15;21.07;;;16.17;;
12267;SDS011;6196;48.398;11.736;2023-03-01T07:19:42;20.43;;;15.73;;
12267;SDS011;6196;48.398;11.736;2023-03-01T07:22:10;22.43;;;16.67;;
12267;SDS011;6196;48.398;11.736;2023-03-01T07:24:37;24.53;;;18.03;;
12267;SDS011;6196;48.398;11.736;2023-03-01T07:27:04;25.23;;;17.37;;
12267;SDS011;6196;48.398;11.736;2023-03-01T07:29:31;20.73;;;16.23;;
12267;SDS011;6196;48.398;11.736;2023-03-01T07:31:58;22.70;;;16.80;;
12267;SDS011;6196;48.398;11.736;2023-03-01T07:34:25;21.73;;;15.37;;
12267;SDS011;6196;48.398;11.736;2023-03-01T07:36:52;22.97;;;16.53;;
12267;SDS011;6196;48.398;11.736;2023-03-01T07:39:19;22.47;;;16.10;;
12267;SDS011;6196;48.398;11.736;2023-03-01T07:41:46;22.10;;;16.57;;
12267;SDS011;6196;48.398;11.736;2023-03-01T07:44:12;21.03;;;15.70;;
12267;SDS011;6196;48.398;11.736;2023-03-01T07:46:39;21.10;;;15.73;;
12267;SDS011;6196;48.398;11.736;2023-03-01T07:49:06;21.47;;;16.47;;
12267;SDS011;6196;48.398;11.736;2023-03-01T07:51:33;19.60;;;14.87;;
12267;SDS011;6196;48.398;11.736;2023-03-01T07:54:00;19.10;;;14.47;;
12267;SDS011;6196;48.398;11.736;2023-03-01T07:56:27;19.60;;;14.73;;
12267;SDS011;6196;48.398;11.736;2023-03-01T07:58:54;20.13;;;14.43;;
12267;SDS011;6196;48.398;11.736;2023-03-01T08:01:21;18.90;;;14.33;;
12267;SDS011;6196;48.398;11.736;2023-03-01T08:03:48;19.67;;;14.33;;
12267;SDS011;6196;48.398;11.736;2023-03-01T08:06:16;20.47;;;15.27;;
12267;SDS011;6196;48.398;11.736;2023-03-01T08:08:44;17.70;;;14.30;;
12267;SDS011;6196;48.398;11.736;2023-03-01T08:11:12;20.53;;;14.87;;
12267;SDS011;6196;48.398;11.736;2023-03-01T08:13:41;18.40;;;15.10;;
12267;SDS011;6196;48.398;11.736;2023-03-01T08:16:12;21.67;;;16.00;;
12267;SDS011;6196;48.398;11.736;2023-03-01T08:18:42;21.07;;;15.50;;
12267;SDS011;6196;48.398;11.736;2023-03-01T08:21:13;20.40;;;15.40;;
12267;SDS011;6196;48.398;11.736;2023-03-01T08:23:43;20.77;;;14.60;;
12267;SDS011;6196;48.398;11.736;2023-03-01T08:26:11;17.53;;;14.80;;
12267;SDS011;6196;48.398;11.736;2023-03-01T08:28:44;18.70;;;15.63;;
12267;SDS011;6196;48.398;11.736;2023-03-01T08:31:19;19.87;;;16.23;;
12267;SDS011;6196;48.398;11.736;2023-03-01T08:33:53;19.77;;;15.73;;
12267;SDS011;6196;48.398;11.736;2023-03-01T08:36:24;22.63;;;16.50;;
12267;SDS011;6196;48.398;11.736;2023-03-01T08:38:54;18.73;;;14.63;;
12267;SDS011;6196;48.398;11.736;2023-03-01T08:41:21;20.47;;;16.40;;
12267;SDS011;6196;48.398;11.736;2023-03-01T08:43:48;19.87;;;15.63;;
12267;SDS011;6196;48.398;11.736;2023-03-01T08:46:16;21.33;;;16.00;;
12267;SDS011;6196;48.398;11.736;2023-03-01T08:48:43;20.70;;;15.80;;
12267;SDS011;6196;48.398;11.736;2023-03-01T08:51:11;24.53;;;17.97;;
12267;SDS011;6196;48.398;11.736;2023-03-01T08:53:41;71.57;;;44.63;;
12267;SDS011;6196;48.398;11.736;2023-03-01T08:56:08;49.40;;;32.30;;
12267;SDS011;6196;48.398;11.736;2023-03-01T08:58:37;70.57;;;41.37;;
12267;SDS011;6196;48.398;11.736;2023-03-01T09:01:09;35.70;;;25.00;;
12267;SDS011;6196;48.398;11.736;2023-03-01T09:03:38;33.17;;;22.60;;
12267;SDS011;6196;48.398;11.736;2023-03-01T09:06:06;25.87;;;18.87;;
12267;SDS011;6196;48.398;11.736;2023-03-01T09:08:34;25.20;;;20.00;;
12267;SDS011;6196;48.398;11.736;2023-03-01T09:11:03;26.73;;;21.10;;
12267;SDS011;6196;48.398;11.736;2023-03-01T09:13:32;20.00;;;16.37;;
12267;SDS011;6196;48.398;11.736;2023-03-01T09:16:00;20.13;;;17.00;;
12267;SDS011;6196;48.398;11.736;2023-03-01T09:18:30;22.67;;;17.33;;
12267;SDS011;6196;48.398;11.736;2023-03-01T09:21:16;21.97;;;16.37;;
12267;SDS011;6196;48.398;11.736;2023-03-01T09:23:56;18.93;;;16.13;;
12267;SDS011;6196;48.398;11.736;2023-03-01T09:26:24;21.53;;;16.13;;
12267;SDS011;6196;48.398;11.736;2023-03-01T09:28:53;23.97;;;16.60;;
12267;SDS011;6196;48.398;11.736;2023-03-01T09:31:22;21.40;;;16.67;;
12267;SDS011;6196;48.398;11.736;2023-03-01T09:33:51;22.70;;;16.80;;
12267;SDS011;6196;48.398;11.736;2023-03-01T09:36:21;24.53;;;17.43;;
12267;SDS011;6196;48.398;11.736;2023-03-01T09:38:51;21.70;;;16.87;;
12267;SDS011;6196;48.398;11.736;2023-03-01T09:44:05;22.47;;;16.90;;
12267;SDS011;6196;48.398;11.736;2023-03-01T09:47:00;20.50;;;15.97;;
12267;SDS011;6196;48.398;11.736;2023-03-01T09:49:29;20.97;;;15.87;;
12267;SDS011;6196;48.398;11.736;2023-03-01T09:54:53;22.77;;;16.60;;
12267;SDS011;6196;48.398;11.736;2023-03-01T09:57:26;19.97;;;15.30;;
12267;SDS011;6196;48.398;11.736;2023-03-01T10:02:59;19.20;;;15.83;;
12267;SDS011;6196;48.398;11.736;2023-03-01T10:05:44;26.83;;;19.60;;
12267;SDS011;6196;48.398;11.736;2023-03-01T10:10:57;28.37;;;21.50;;
12267;SDS011;6196;48.398;11.736;2023-03-01T10:16:16;22.93;;;17.77;;
12267;SDS011;6196;48.398;11.736;2023-03-01T10:19:09;21.27;;;17.07;;
12267;SDS011;6196;48.398;11.736;2023-03-01T10:21:44;21.83;;;16.47;;
12267;SDS011;6196;48.398;11.736;2023-03-01T10:24:13;20.53;;;16.37;;
12267;SDS011;6196;48.398;11.736;2023-03-01T10:26:51;23.03;;;17.07;;
12267;SDS011;6196;48.398;11.736;2023-03-01T10:29:29;19.50;;;16.30;;
12267;SDS011;6196;48.398;11.736;2023-03-01T10:32:05;19.23;;;15.37;;
12267;SDS011;6196;48.398;11.736;2023-03-01T10:34:34;26.43;;;16.83;;
12267;SDS011;6196;48.398;11.736;2023-03-01T10:37:12;19.23;;;15.80;;
12267;SDS011;6196;48.398;11.736;2023-03-01T10:39:54;20.30;;;16.03;;
12267;SDS011;6196;48.398;11.736;2023-03-01T10:42:33;22.20;;;16.07;;
12267;SDS011;6196;48.398;11.736;2023-03-01T10:47:41;19.57;;;15.40;;
12267;SDS011;6196;48.398;11.736;2023-03-01T10:50:19;23.07;;;17.17;;
12267;SDS011;6196;48.398;11.736;2023-03-01T10:52:58;19.17;;;16.40;;
12267;SDS011;6196;48.398;11.736;2023-03-01T10:55:34;20.27;;;16.47;;
12267;SDS011;6196;48.398;11.736;2023-03-01T11:00:53;20.00;;;15.90;;
12267;SDS011;6196;48.398;11.736;2023-03-01T11:03:26;21.63;;;16.70;;
12267;SDS011;6196;48.398;11.736;2023-03-01T11:06:01;19.20;;;16.23;;
12267;SDS011;6196;48.398;11.736;2023-03-01T11:08:43;20.90;;;16.20;;
12267;SDS011;6196;48.398;11.736;2023-03-01T11:17:01;21.60;;;16.97;;
12267;SDS011;6196;48.398;11.736;2023-03-01T11:19:37;20.47;;;16.00;;
12267;SDS011;6196;48.398;11.736;2023-03-01T11:22:12;21.53;;;16.33;;
12267;SDS011;6196;48.398;11.736;2023-03-01T11:24:41;19.27;;;15.70;;
12267;SDS011;6196;48.398;11.736;2023-03-01T11:27:30;18.73;;;15.83;;
12267;SDS011;6196;48.398;11.736;2023-03-01T11:30:05;17.97;;;14.90;;
12267;SDS011;6196;48.398;11.736;2023-03-01T11:33:05;18.30;;;14.90;;
12267;SDS011;6196;48.398;11.736;2023-03-01T11:35:49;18.43;;;15.97;;
12267;SDS011;6196;48.398;11.736;2023-03-01T11:38:27;19.10;;;16.33;;
12267;SDS011;6196;48.398;11.736;2023-03-01T11:40:57;18.20;;;16.30;;
12267;SDS011;6196;48.398;11.736;2023-03-01T11:54:43;17.63;;;14.93;;
12267;SDS011;6196;48.398;11.736;2023-03-01T12:03:57;18.23;;;15.17;;
12267;SDS011;6196;48.398;11.736;2023-03-01T12:07:01;18.03;;;14.83;;
12267;SDS011;6196;48.398;11.736;2023-03-01T12:13:03;17.43;;;15.00;;
12267;SDS011;6196;48.398;11.736;2023-03-01T12:15:42;16.53;;;14.17;;
12267;SDS011;6196;48.398;11.736;2023-03-01T12:23:49;15.70;;;14.03;;
12267;SDS011;6196;48.398;11.736;2023-03-01T12:26:55;15.87;;;13.53;;
12267;SDS011;6196;48.398;11.736;2023-03-01T12:32:28;16.87;;;14.57;;
12267;SDS011;6196;48.398;11.736;2023-03-01T12:43:56;16.63;;;13.90;;
12267;SDS011;6196;48.398;11.736;2023-03-01T12:46:58;16.97;;;13.67;;
12267;SDS011;6196;48.398;11.736;2023-03-01T12:49:45;15.67;;;13.90;;
12267;SDS011;6196;48.398;11.736;2023-03-01T12:55:06;14.53;;;13.03;;
12267;SDS011;6196;48.398;11.736;2023-03-01T13:00:45;14.93;;;13.37;;
12267;SDS011;6196;48.398;11.736;2023-03-01T13:17:49;14.03;;;12.63;;
12267;SDS011;6196;48.398;11.736;2023-03-01T13:50:00;13.63;;;12.23;;
12267;SDS011;6196;48.398;11.736;2023-03-01T13:55:30;14.43;;;12.93;;
12267;SDS011;6196;48.398;11.736;2023-03-01T13:58:14;14.07;;;12.67;;
12267;SDS011;6196;48.398;11.736;2023-03-01T14:00:58;16.67;;;13.80;;
12267;SDS011;6196;48.398;11.736;2023-03-01T14:03:33;14.63;;;12.97;;
12267;SDS011;6196;48.398;11.736;2023-03-01T14:06:20;14.10;;;12.60;;
12267;SDS011;6196;48.398;11.736;2023-03-01T14:09:00;16.37;;;14.60;;
12267;SDS011;6196;48.398;11.736;2023-03-01T14:14:45;27.57;;;21.87;;
12267;SDS011;6196;48.398;11.736;2023-03-01T14:20:32;14.50;;;12.67;;
12267;SDS011;6196;48.398;11.736;2023-03-01T14:23:12;21.00;;;18.80;;
12267;SDS011;6196;48.398;11.736;2023-03-01T14:25:51;17.57;;;14.93;;
12267;SDS011;6196;48.398;11.736;2023-03-01T14:30:53;15.70;;;14.10;;
12267;SDS011;6196;48.398;11.736;2023-03-01T14:33:35;17.07;;;14.53;;
12267;SDS011;6196;48.398;11.736;2023-03-01T14:43:44;12.53;;;11.33;;
12267;SDS011;6196;48.398;11.736;2023-03-01T14:46:19;11.80;;;10.70;;
12267;SDS011;6196;48.398;11.736;2023-03-01T14:48:49;11.57;;;10.47;;
12267;SDS011;6196;48.398;11.736;2023-03-01T14:51:22;12.53;;;11.40;;
12267;SDS011;6196;48.398;11.736;2023-03-01T14:53:50;13.10;;;11.70;;
12267;SDS011;6196;48.398;11.736;2023-03-01T14:56:18;11.33;;;10.17;;
12267;SDS011;6196;48.398;11.736;2023-03-01T14:58:45;11.63;;;10.43;;
12267;SDS011;6196;48.398;11.736;2023-03-01T15:01:17;11.10;;;9.83;;
12267;SDS011;6196;48.398;11.736;2023-03-01T15:03:45;10.83;;;9.83;;
12267;SDS011;6196;48.398;11.736;2023-03-01T15:06:15;11.90;;;10.67;;
12267;SDS011;6196;48.398;11.736;2023-03-01T15:08:47;12.13;;;10.97;;
12267;SDS011;6196;48.398;11.736;2023-03-01T15:13:51;10.77;;;9.50;;
12267;SDS011;6196;48.398;11.736;2023-03-01T15:16:19;11.47;;;10.47;;
12267;SDS011;6196;48.398;11.736;2023-03-01T15:18:57;12.27;;;11.07;;
12267;SDS011;6196;48.398;11.736;2023-03-01T15:21:36;11.17;;;9.97;;
12267;SDS011;6196;48.398;11.736;2023-03-01T15:24:15;10.13;;;9.13;;
12267;SDS011;6196;48.398;11.736;2023-03-01T15:26:50;10.33;;;9.33;;
12267;SDS011;6196;48.398;11.736;2023-03-01T15:29:28;11.30;;;8.97;;
12267;SDS011;6196;48.398;11.736;2023-03-01T15:32:00;11.17;;;9.93;;
12267;SDS011;6196;48.398;11.736;2023-03-01T15:34:59;10.30;;;9.30;;
12267;SDS011;6196;48.398;11.736;2023-03-01T15:41:26;9.80;;;8.80;;
12267;SDS011;6196;48.398;11.736;2023-03-01T15:43:59;10.13;;;9.07;;
12267;SDS011;6196;48.398;11.736;2023-03-01T15:46:44;12.53;;;9.60;;
12267;SDS011;6196;48.398;11.736;2023-03-01T15:49:25;10.23;;;8.70;;
12267;SDS011;6196;48.398;11.736;2023-03-01T15:52:21;10.63;;;9.40;;
12267;SDS011;6196;48.398;11.736;2023-03-01T15:55:05;10.07;;;9.07;;
12267;SDS011;6196;48.398;11.736;2023-03-01T15:57:47;11.20;;;9.47;;
12267;SDS011;6196;48.398;11.736;2023-03-01T16:00:15;13.07;;;10.73;;
12267;SDS011;6196;48.398;11.736;2023-03-01T16:02:43;11.50;;;10.10;;
12267;SDS011;6196;48.398;11.736;2023-03-01T16:05:22;11.20;;;9.77;;
12267;SDS011;6196;48.398;11.736;2023-03-01T16:07:52;12.27;;;10.07;;
12267;SDS011;6196;48.398;11.736;2023-03-01T16:10:20;12.80;;;10.10;;
12267;SDS011;6196;48.398;11.736;2023-03-01T16:12:47;11.23;;;9.93;;
12267;SDS011;6196;48.398;11.736;2023-03-01T16:15:30;12.03;;;9.57;;
12267;SDS011;6196;48.398;11.736;2023-03-01T16:18:02;10.97;;;9.67;;
12267;SDS011;6196;48.398;11.736;2023-03-01T16:20:29;12.77;;;10.40;;
12267;SDS011;6196;48.398;11.736;2023-03-01T16:22:59;12.07;;;9.67;;
12267;SDS011;6196;48.398;11.736;2023-03-01T16:25:29;13.70;;;10.13;;
12267;SDS011;6196;48.398;11.736;2023-03-01T16:27:56;11.23;;;10.00;;
12267;SDS011;6196;48.398;11.736;2023-03-01T16:30:26;12.90;;;10.13;;
12267;SDS011;6196;48.398;11.736;2023-03-01T16:32:53;17.97;;;11.27;;
12267;SDS011;6196;48.398;11.736;2023-03-01T16:35:21;16.53;;;11.60;;
12267;SDS011;6196;48.398;11.736;2023-03-01T16:37:49;14.50;;;11.33;;
12267;SDS011;6196;48.398;11.736;2023-03-01T16:40:19;14.30;;;12.17;;
12267;SDS011;6196;48.398;11.736;2023-03-01T16:42:53;14.50;;;11.27;;
12267;SDS011;6196;48.398;11.736;2023-03-01T16:45:26;17.97;;;12.97;;
12267;SDS011;6196;48.398;11.736;2023-03-01T16:47:55;18.17;;;12.90;;
12267;SDS011;6196;48.398;11.736;2023-03-01T16:50:22;17.73;;;12.97;;
12267;SDS011;6196;48.398;11.736;2023-03-01T16:52:49;17.23;;;13.43;;
12267;SDS011;6196;48.398;11.736;2023-03-01T16:55:16;16.53;;;14.00;;
12267;SDS011;6196;48.398;11.736;2023-03-01T16:57:43;17.33;;;14.77;;
12267;SDS011;6196;48.398;11.736;2023-03-01T17:00:10;20.07;;;14.80;;
12267;SDS011;6196;48.398;11.736;2023-03-01T17:02:40;19.83;;;14.23;;
12267;SDS011;6196;48.398;11.736;2023-03-01T17:05:08;18.80;;;14.73;;
12267;SDS011;6196;48.398;11.736;2023-03-01T17:07:38;19.97;;;15.33;;
12267;SDS011;6196;48.398;11.736;2023-03-01T17:10:07;20.30;;;14.73;;
12267;SDS011;6196;48.398;11.736;2023-03-01T17:12:36;20.40;;;14.50;;
12267;SDS011;6196;48.398;11.736;2023-03-01T17:15:04;20.10;;;15.23;;
12267;SDS011;6196;48.398;11.736;2023-03-01T17:17:32;20.27;;;14.80;;
12267;SDS011;6196;48.398;11.736;2023-03-01T17:20:01;23.47;;;16.53;;
12267;SDS011;6196;48.398;11.736;2023-03-01T17:22:30;21.90;;;15.50;;